createdAt,value
2022-11-08T00:01:28.086Z,12.66
2022-11-08T00:03:58.507Z,12.71
2022-11-08T00:06:41.413Z,12.68
2022-11-08T00:09:24.224Z,12.60
2022-11-08T00:12:06.816Z,12.58
2022-11-08T00:14:37.006Z,12.50
2022-11-08T00:17:09.893Z,12.45
2022-11-08T00:19:40.043Z,12.47
2022-11-08T00:22:10.256Z,12.48
2022-11-08T00:24:40.839Z,12.50
2022-11-08T00:27:14.035Z,12.48
2022-11-08T00:29:44.265Z,12.45
2022-11-08T00:32:20.203Z,12.42
2022-11-08T00:34:51.120Z,12.39
2022-11-08T00:37:23.395Z,12.40
2022-11-08T00:39:53.497Z,12.41
2022-11-08T00:42:23.572Z,12.37
2022-11-08T00:44:53.597Z,12.39
2022-11-08T00:47:26.262Z,12.37
2022-11-08T00:49:56.427Z,12.28
2022-11-08T00:52:26.612Z,12.28
2022-11-08T00:54:56.642Z,12.25
2022-11-08T00:57:41.170Z,12.30
2022-11-08T01:00:18.203Z,12.23
2022-11-08T01:03:11.192Z,12.24
2022-11-08T01:05:41.750Z,12.28
2022-11-08T01:08:13.284Z,12.26
2022-11-08T01:10:44.870Z,12.30
2022-11-08T01:13:15.907Z,12.35
2022-11-08T01:15:47.127Z,12.37
2022-11-08T01:18:21.056Z,12.41
2022-11-08T01:20:53.110Z,12.38
2022-11-08T01:23:23.326Z,12.38
2022-11-08T01:25:53.403Z,12.41
2022-11-08T01:28:23.496Z,12.39
2022-11-08T01:30:53.496Z,12.35
2022-11-08T01:33:26.353Z,12.33
2022-11-08T01:35:56.532Z,12.32
2022-11-08T01:38:26.772Z,12.36
2022-11-08T01:40:57.206Z,12.39
2022-11-08T01:43:46.251Z,12.36
2022-11-08T01:46:44.770Z,12.34
2022-11-08T01:49:41.196Z,12.37
2022-11-08T01:52:24.602Z,12.36
2022-11-08T01:55:08.499Z,12.39
2022-11-08T01:57:48.814Z,12.42
2022-11-08T02:00:20.194Z,12.38
2022-11-08T02:02:58.209Z,12.39
2022-11-08T02:05:33.219Z,12.34
2022-11-08T02:08:10.302Z,12.35
2022-11-08T02:10:43.580Z,12.31
2022-11-08T02:13:18.954Z,12.36
2022-11-08T02:15:49.456Z,12.34
2022-11-08T02:18:22.030Z,12.34
2022-11-08T02:21:07.762Z,12.35
2022-11-08T02:23:49.807Z,12.29
2022-11-08T02:26:22.784Z,12.26
2022-11-08T02:28:53.783Z,12.20
2022-11-08T02:31:23.899Z,12.20
2022-11-08T02:33:54.261Z,12.22
2022-11-08T02:36:27.629Z,12.19
2022-11-08T02:39:01.172Z,12.19
2022-11-08T02:41:31.255Z,12.15
2022-11-08T02:44:02.471Z,12.09
2022-11-08T02:46:32.897Z,12.10
2022-11-08T02:49:03.134Z,12.12
2022-11-08T02:51:33.208Z,12.12
2022-11-08T02:54:06.167Z,12.12
2022-11-08T02:56:36.433Z,12.12
2022-11-08T02:59:06.716Z,12.09
2022-11-08T03:01:39.896Z,12.06
2022-11-08T03:04:10.188Z,12.02
2022-11-08T03:06:40.485Z,12.02
2022-11-08T03:09:13.985Z,12.01
2022-11-08T03:11:44.386Z,12.01
2022-11-08T03:14:14.547Z,11.95
2022-11-08T03:16:44.613Z,11.94
2022-11-08T03:19:15.201Z,11.96
2022-11-08T03:21:45.336Z,11.98
2022-11-08T03:24:18.258Z,11.98
2022-11-08T03:26:48.482Z,12.04
2022-11-08T03:29:18.555Z,12.06
2022-11-08T03:31:48.688Z,12.07
2022-11-08T03:34:18.863Z,12.10
2022-11-08T03:36:48.977Z,12.13
2022-11-08T03:39:21.732Z,12.17
2022-11-08T03:41:51.892Z,12.11
2022-11-08T03:44:22.016Z,12.09
2022-11-08T03:46:52.178Z,12.09
2022-11-08T03:49:22.251Z,12.10
2022-11-08T03:51:52.418Z,12.09
2022-11-08T03:54:25.140Z,12.13
2022-11-08T03:56:55.656Z,12.15
2022-11-08T03:59:25.805Z,12.21
2022-11-08T04:01:55.976Z,12.19
2022-11-08T04:04:26.331Z,12.16
2022-11-08T04:06:56.323Z,12.16
2022-11-08T04:09:29.226Z,12.17
2022-11-08T04:12:11.820Z,12.10
2022-11-08T04:14:54.437Z,12.05
2022-11-08T04:17:45.165Z,11.98
2022-11-08T04:20:27.788Z,12.01
2022-11-08T04:22:57.896Z,11.97
2022-11-08T04:25:34.935Z,11.90
2022-11-08T04:28:05.941Z,11.89
2022-11-08T04:30:37.227Z,11.85
2022-11-08T04:33:08.576Z,11.82
2022-11-08T04:35:38.674Z,11.92
2022-11-08T04:38:08.891Z,11.88
2022-11-08T04:40:41.630Z,11.88
2022-11-08T04:43:11.988Z,11.95
2022-11-08T04:45:42.680Z,11.90
2022-11-08T04:48:13.022Z,11.95
2022-11-08T04:50:43.419Z,11.88
2022-11-08T04:53:13.536Z,11.88
2022-11-08T04:55:46.203Z,11.76
2022-11-08T04:58:16.898Z,11.74
2022-11-08T05:00:47.298Z,11.72
2022-11-08T05:03:17.402Z,11.68
2022-11-08T05:05:47.436Z,11.73
2022-11-08T05:08:17.827Z,11.65
2022-11-08T05:10:50.795Z,11.60
2022-11-08T05:13:20.930Z,11.59
2022-11-08T05:15:50.925Z,11.58
2022-11-08T05:18:21.079Z,11.62
2022-11-08T05:21:09.720Z,11.58
2022-11-08T05:23:39.906Z,11.61
2022-11-08T05:26:12.725Z,11.63
2022-11-08T05:28:43.189Z,11.58
2022-11-08T05:31:17.125Z,11.55
2022-11-08T05:33:47.722Z,11.53
2022-11-08T05:36:19.269Z,11.58
2022-11-08T05:38:49.696Z,11.59
2022-11-08T05:41:25.585Z,11.56
2022-11-08T05:43:57.528Z,11.54
2022-11-08T05:46:30.308Z,11.53
2022-11-08T05:49:00.504Z,11.62
2022-11-08T05:51:30.601Z,11.63
2022-11-08T05:54:00.701Z,11.61
2022-11-08T05:56:33.398Z,11.63
2022-11-08T05:59:03.724Z,11.62
2022-11-08T06:01:34.180Z,11.60
2022-11-08T06:04:04.368Z,11.60
2022-11-08T06:06:34.463Z,11.65
2022-11-08T06:09:04.640Z,11.61
2022-11-08T06:11:37.580Z,11.68
2022-11-08T06:14:07.802Z,11.70
2022-11-08T06:16:37.854Z,11.80
2022-11-08T06:19:08.117Z,11.81
2022-11-08T06:21:38.800Z,11.82
2022-11-08T06:24:10.470Z,11.78
2022-11-08T06:26:43.146Z,11.79
2022-11-08T06:29:13.623Z,11.82
2022-11-08T06:31:55.207Z,11.82
2022-11-08T06:34:25.440Z,11.85
2022-11-08T06:36:58.796Z,11.87
2022-11-08T06:39:29.011Z,12.00
2022-11-08T06:42:01.874Z,12.02
2022-11-08T06:44:31.973Z,12.05
2022-11-08T06:47:02.155Z,12.14
2022-11-08T06:49:32.160Z,12.24
2022-11-08T06:52:02.392Z,12.35
2022-11-08T06:54:32.958Z,12.44
2022-11-08T06:57:05.910Z,12.48
2022-11-08T06:59:36.131Z,12.57
2022-11-08T07:02:06.342Z,12.70
2022-11-08T07:04:36.686Z,12.92
2022-11-08T07:07:06.959Z,13.29
2022-11-08T07:09:37.396Z,13.52
2022-11-08T07:12:10.212Z,13.65
2022-11-08T07:14:40.385Z,13.63
2022-11-08T07:17:10.652Z,13.68
2022-11-08T07:19:40.772Z,13.71
2022-11-08T07:22:10.938Z,13.73
2022-11-08T07:24:41.251Z,13.67
2022-11-08T07:27:13.997Z,13.73
2022-11-08T07:29:44.215Z,13.68
2022-11-08T07:32:14.331Z,13.69
2022-11-08T07:34:44.444Z,13.67
2022-11-08T07:37:14.614Z,13.74
2022-11-08T07:39:44.616Z,13.79
2022-11-08T07:42:17.400Z,13.83
2022-11-08T07:44:49.157Z,13.88
2022-11-08T07:47:19.287Z,14.06
2022-11-08T07:49:49.340Z,14.23
2022-11-08T07:52:19.528Z,14.30
2022-11-08T07:54:49.727Z,14.40
2022-11-08T07:57:22.660Z,14.57
2022-11-08T07:59:52.770Z,14.85
2022-11-08T08:02:24.149Z,14.92
2022-11-08T08:04:54.400Z,15.12
2022-11-08T08:07:24.448Z,15.91
2022-11-08T08:09:54.576Z,16.42
2022-11-08T08:12:27.436Z,16.93
2022-11-08T08:14:57.565Z,17.62
2022-11-08T08:17:27.874Z,17.75
2022-11-08T08:19:58.019Z,17.68
2022-11-08T08:22:28.174Z,17.70
2022-11-08T08:25:02.739Z,17.43
2022-11-08T08:27:35.875Z,16.90
2022-11-08T08:30:06.469Z,16.50
2022-11-08T08:32:37.204Z,16.52
2022-11-08T08:35:08.285Z,16.71
2022-11-08T08:37:38.568Z,16.98
2022-11-08T08:40:11.150Z,17.92
2022-11-08T08:42:43.876Z,18.86
2022-11-08T08:45:15.229Z,19.23
2022-11-08T08:47:45.555Z,18.76
2022-11-08T08:50:15.698Z,18.67
2022-11-08T08:52:45.996Z,19.14
2022-11-08T08:55:16.350Z,19.69
2022-11-08T08:57:52.197Z,20.55
2022-11-08T09:03:14.192Z,21.58
2022-11-08T09:05:46.867Z,21.29
2022-11-08T09:08:18.101Z,20.74
2022-11-08T09:10:48.193Z,20.99
2022-11-08T09:13:21.177Z,21.41
2022-11-08T09:15:51.458Z,21.59
2022-11-08T09:18:22.310Z,21.39
2022-11-08T09:20:52.475Z,21.41
2022-11-08T09:23:22.653Z,21.64
2022-11-08T09:25:52.770Z,21.50
2022-11-08T09:28:30.733Z,21.39
2022-11-08T09:31:04.751Z,21.90
2022-11-08T09:33:35.436Z,21.41
2022-11-08T09:36:07.035Z,20.82
2022-11-08T09:38:37.544Z,21.14
2022-11-08T09:41:41.573Z,21.66
2022-11-08T09:44:41.049Z,21.84
2022-11-08T09:47:22.470Z,21.56
2022-11-08T09:50:02.822Z,21.40
2022-11-08T09:52:35.911Z,21.52
2022-11-08T09:55:20.921Z,21.46
2022-11-08T09:58:07.235Z,21.50
2022-11-08T10:00:43.459Z,22.38
2022-11-08T10:03:18.411Z,22.63
2022-11-08T10:06:05.118Z,22.16
2022-11-08T10:08:40.922Z,22.40
2022-11-08T10:11:25.812Z,21.59
2022-11-08T10:14:12.669Z,21.36
2022-11-08T10:16:53.862Z,21.44
2022-11-08T10:19:52.218Z,21.25
2022-11-08T10:22:33.884Z,20.69
2022-11-08T10:25:06.216Z,21.18
2022-11-08T10:27:40.630Z,21.69
2022-11-08T10:30:21.629Z,21.95
2022-11-08T10:32:57.896Z,21.45
2022-11-08T10:35:33.161Z,21.43
2022-11-08T10:38:04.840Z,22.03
2022-11-08T10:40:45.748Z,22.13
2022-11-08T10:43:30.008Z,22.36
2022-11-08T10:46:00.145Z,22.70
2022-11-08T10:48:40.237Z,22.95
2022-11-08T10:51:11.278Z,23.00
2022-11-08T10:53:48.882Z,22.84
2022-11-08T10:56:19.740Z,22.83
2022-11-08T10:58:49.819Z,23.03
2022-11-08T11:01:23.192Z,22.94
2022-11-08T11:03:56.724Z,22.75
2022-11-08T11:06:30.757Z,22.89
2022-11-08T11:09:04.310Z,23.59
2022-11-08T11:11:40.930Z,23.72
2022-11-08T11:14:21.752Z,24.02
2022-11-08T11:17:00.259Z,24.32
2022-11-08T11:19:33.824Z,24.86
2022-11-08T11:22:07.962Z,25.78
2022-11-08T11:24:39.267Z,25.45
2022-11-08T11:27:12.388Z,25.94
2022-11-08T11:29:42.503Z,26.19
2022-11-08T11:32:27.256Z,26.36
2022-11-08T11:35:02.926Z,26.45
2022-11-08T11:37:42.222Z,26.94
2022-11-08T11:40:24.562Z,27.55
2022-11-08T11:43:05.842Z,27.81
2022-11-08T11:45:45.282Z,27.69
2022-11-08T11:48:20.835Z,27.53
2022-11-08T11:50:54.512Z,26.78
2022-11-08T11:53:28.571Z,25.34
2022-11-08T11:56:33.967Z,24.31
2022-11-08T12:03:18.331Z,24.08
2022-11-08T12:06:07.905Z,23.27
2022-11-08T12:08:57.095Z,24.88
2022-11-08T12:11:43.770Z,25.67
2022-11-08T12:14:35.023Z,27.12
2022-11-08T12:17:23.848Z,28.15
2022-11-08T12:20:10.088Z,28.18
2022-11-08T12:22:57.517Z,29.69
2022-11-08T12:25:35.538Z,29.40
2022-11-08T12:28:26.399Z,30.23
2022-11-08T12:31:04.870Z,30.59
2022-11-08T12:33:47.158Z,30.94
2022-11-08T12:36:27.187Z,31.62
2022-11-08T12:39:22.191Z,31.45
2022-11-08T12:42:10.586Z,31.86
2022-11-08T12:45:21.469Z,31.78
2022-11-08T12:48:00.063Z,32.07
2022-11-08T12:50:38.988Z,32.04
2022-11-08T12:53:51.637Z,31.90
2022-11-08T12:56:29.936Z,30.83
2022-11-08T12:59:00.547Z,29.57
2022-11-08T13:01:30.917Z,29.07
2022-11-08T13:04:51.487Z,28.07
2022-11-08T13:07:41.222Z,26.41
2022-11-08T13:10:24.779Z,25.65
2022-11-08T13:13:17.547Z,24.70
2022-11-08T13:16:11.660Z,23.87
2022-11-08T13:18:50.522Z,23.40
2022-11-08T13:21:39.920Z,23.36
2022-11-08T13:27:50.439Z,22.61
2022-11-08T13:30:41.445Z,22.59
2022-11-08T13:33:29.169Z,22.76
2022-11-08T13:36:20.860Z,22.87
2022-11-08T13:39:01.938Z,23.46
2022-11-08T13:41:35.013Z,24.30
2022-11-08T13:44:55.249Z,24.61
2022-11-08T13:48:02.193Z,24.85
2022-11-08T13:50:57.722Z,24.50
2022-11-08T13:53:47.474Z,24.21
2022-11-08T13:56:44.166Z,23.70
2022-11-08T14:00:01.926Z,23.36
2022-11-08T14:02:45.399Z,22.95
2022-11-08T14:05:51.753Z,22.53
2022-11-08T14:08:31.543Z,22.14
2022-11-08T14:11:33.517Z,22.01
2022-11-08T14:14:25.677Z,21.96
2022-11-08T14:17:23.186Z,21.74
2022-11-08T14:19:54.740Z,21.53
2022-11-08T14:22:32.123Z,21.04
2022-11-08T14:25:16.647Z,20.50
2022-11-08T14:27:46.885Z,20.35
2022-11-08T14:30:19.917Z,20.41
2022-11-08T14:32:51.099Z,20.33
2022-11-08T14:35:28.454Z,20.11
2022-11-08T14:38:01.301Z,19.99
2022-11-08T14:40:32.703Z,19.76
2022-11-08T14:43:02.872Z,19.47
2022-11-08T14:45:33.006Z,19.36
2022-11-08T14:48:07.139Z,19.21
2022-11-08T14:50:38.113Z,19.03
2022-11-08T14:53:27.698Z,18.93
2022-11-08T14:56:15.041Z,18.70
2022-11-08T14:58:45.650Z,18.42
2022-11-08T15:01:18.042Z,18.27
2022-11-08T15:03:54.448Z,18.20
2022-11-08T15:06:26.141Z,18.18
2022-11-08T15:08:59.517Z,18.16
2022-11-08T15:11:33.824Z,18.02
2022-11-08T15:14:07.017Z,17.90
2022-11-08T15:16:45.527Z,17.85
2022-11-08T15:19:33.177Z,17.81
2022-11-08T15:22:06.374Z,17.70
2022-11-08T15:24:42.732Z,17.55
2022-11-08T15:27:19.477Z,17.39
2022-11-08T15:29:55.402Z,17.41
2022-11-08T15:32:26.042Z,17.35
2022-11-08T15:34:58.731Z,17.34
2022-11-08T15:37:34.161Z,17.24
2022-11-08T15:40:10.438Z,17.09
2022-11-08T15:42:47.242Z,17.06
2022-11-08T15:45:28.999Z,16.88
2022-11-08T15:48:14.577Z,16.83
2022-11-08T15:50:44.783Z,16.78
2022-11-08T15:53:14.860Z,16.73
2022-11-08T15:55:53.140Z,16.59
2022-11-08T15:58:29.789Z,16.48
2022-11-08T16:01:02.371Z,16.36
2022-11-08T16:03:34.092Z,16.29
2022-11-08T16:06:04.376Z,16.10
2022-11-08T16:08:34.454Z,16.03
2022-11-08T16:11:07.661Z,15.95
2022-11-08T16:13:42.042Z,15.85
2022-11-08T16:16:16.735Z,15.77
2022-11-08T16:18:47.338Z,15.73
2022-11-08T16:21:18.271Z,15.74
2022-11-08T16:23:48.273Z,15.71
2022-11-08T16:26:21.650Z,15.65
2022-11-08T16:28:51.806Z,15.60
2022-11-08T16:31:21.809Z,15.54
2022-11-08T16:33:54.095Z,15.48
2022-11-08T16:36:27.778Z,15.42
2022-11-08T16:38:59.988Z,15.43
2022-11-08T16:41:33.005Z,15.49
2022-11-08T16:44:03.127Z,15.47
2022-11-08T16:46:33.236Z,15.51
2022-11-08T16:49:03.398Z,15.49
2022-11-08T16:51:33.458Z,15.47
2022-11-08T16:54:05.281Z,15.44
2022-11-08T16:56:37.966Z,15.38
2022-11-08T16:59:08.306Z,15.34
2022-11-08T17:01:38.439Z,15.33
2022-11-08T17:04:08.711Z,15.37
2022-11-08T17:06:38.833Z,15.33
2022-11-08T17:09:09.441Z,15.20
2022-11-08T17:11:42.099Z,15.16
2022-11-08T17:14:13.990Z,15.12
2022-11-08T17:16:44.254Z,15.11
2022-11-08T17:19:14.401Z,15.12
2022-11-08T17:21:45.692Z,15.04
2022-11-08T17:24:21.669Z,15.01
2022-11-08T17:26:55.472Z,14.96
2022-11-08T17:29:25.851Z,14.95
2022-11-08T17:31:55.999Z,14.94
2022-11-08T17:34:26.048Z,14.92
2022-11-08T17:36:56.104Z,14.82
2022-11-08T17:39:26.300Z,14.84
2022-11-08T17:41:58.911Z,14.82
2022-11-08T17:44:29.600Z,14.84
2022-11-08T17:46:59.788Z,14.83
2022-11-08T17:49:31.039Z,14.90
2022-11-08T17:52:01.415Z,14.88
2022-11-08T17:54:31.679Z,14.91
2022-11-08T17:57:04.662Z,14.92
2022-11-08T17:59:34.870Z,14.87
2022-11-08T18:02:05.081Z,14.85
2022-11-08T18:04:35.391Z,14.83
2022-11-08T18:07:05.596Z,14.83
2022-11-08T18:09:35.858Z,14.84
2022-11-08T18:12:09.129Z,14.84
2022-11-08T18:14:39.332Z,14.93
2022-11-08T18:17:09.452Z,14.92
2022-11-08T18:19:39.529Z,14.93
2022-11-08T18:22:09.582Z,14.94
2022-11-08T18:24:39.615Z,14.99
2022-11-08T18:27:14.676Z,15.04
2022-11-08T18:29:44.801Z,15.11
2022-11-08T18:32:17.284Z,15.09
2022-11-08T18:34:47.455Z,15.20
2022-11-08T18:37:17.546Z,15.19
2022-11-08T18:39:47.763Z,15.12
2022-11-08T18:42:20.394Z,15.13
2022-11-08T18:44:50.577Z,15.08
2022-11-08T18:47:20.656Z,15.07
2022-11-08T18:49:50.761Z,15.10
2022-11-08T18:52:20.964Z,15.12
2022-11-08T18:54:51.192Z,15.04
2022-11-08T18:57:24.038Z,15.01
2022-11-08T18:59:58.367Z,15.00
2022-11-08T19:02:31.046Z,15.03
2022-11-08T19:05:01.182Z,15.07
2022-11-08T19:07:31.364Z,15.20
2022-11-08T19:10:01.440Z,15.23
2022-11-08T19:12:34.231Z,15.26
2022-11-08T19:15:04.425Z,15.29
2022-11-08T19:17:36.415Z,15.31
2022-11-08T19:20:08.010Z,15.32
2022-11-08T19:22:38.192Z,15.39
2022-11-08T19:25:09.024Z,15.40
2022-11-08T19:27:41.540Z,15.34
2022-11-08T19:30:13.097Z,15.48
2022-11-08T19:32:45.715Z,15.49
2022-11-08T19:35:16.671Z,15.45
2022-11-08T19:37:46.528Z,15.42
2022-11-08T19:40:16.718Z,15.34
2022-11-08T19:42:49.426Z,15.35
2022-11-08T19:45:19.714Z,15.39
2022-11-08T19:47:51.704Z,15.35
2022-11-08T19:50:21.970Z,15.36
2022-11-08T19:52:52.853Z,15.46
2022-11-08T19:55:22.969Z,15.54
2022-11-08T19:57:55.605Z,15.55
2022-11-08T20:00:25.791Z,15.60
2022-11-08T20:02:56.115Z,15.62
2022-11-08T20:05:26.903Z,15.64
2022-11-08T20:07:57.142Z,15.68
2022-11-08T20:10:27.691Z,15.62
2022-11-08T20:13:00.637Z,15.74
2022-11-08T20:15:30.983Z,15.81
2022-11-08T20:18:01.405Z,15.82
2022-11-08T20:20:32.188Z,15.91
2022-11-08T20:23:02.367Z,15.96
2022-11-08T20:25:32.469Z,15.97
2022-11-08T20:28:05.363Z,15.95
2022-11-08T20:30:35.729Z,15.90
2022-11-08T20:33:06.356Z,15.92
2022-11-08T20:35:38.757Z,16.00
2022-11-08T20:38:08.884Z,15.95
2022-11-08T20:40:41.200Z,15.85
2022-11-08T20:43:14.041Z,15.74
2022-11-08T20:45:44.179Z,15.72
2022-11-08T20:48:14.328Z,15.71
2022-11-08T20:50:44.587Z,15.72
2022-11-08T20:53:14.761Z,15.71
2022-11-08T20:55:44.814Z,15.73
2022-11-08T20:58:17.893Z,15.77
2022-11-08T21:00:58.164Z,15.77
2022-11-08T21:03:30.404Z,15.77
2022-11-08T21:06:03.777Z,15.81
2022-11-08T21:11:24.838Z,15.77
2022-11-08T21:13:57.635Z,15.81
2022-11-08T21:16:30.471Z,15.82
2022-11-08T21:19:01.104Z,15.85
2022-11-08T21:21:31.769Z,15.81
2022-11-08T21:24:01.916Z,15.84
2022-11-08T21:26:36.473Z,15.81
2022-11-08T21:29:10.284Z,15.81
2022-11-08T21:31:40.490Z,15.81
2022-11-08T21:34:12.006Z,15.86
2022-11-08T21:36:42.100Z,15.87
2022-11-08T21:39:12.306Z,15.86
2022-11-08T21:41:42.531Z,16.01
2022-11-08T21:44:15.357Z,16.04
2022-11-08T21:46:45.691Z,16.07
2022-11-08T21:49:16.466Z,16.02
2022-11-08T21:51:46.545Z,16.04
2022-11-08T21:54:16.584Z,16.04
2022-11-08T21:56:46.660Z,16.05
2022-11-08T21:59:19.359Z,16.05
2022-11-08T22:01:49.488Z,16.02
2022-11-08T22:04:19.498Z,16.01
2022-11-08T22:06:49.653Z,15.97
2022-11-08T22:09:19.741Z,16.06
2022-11-08T22:11:49.783Z,16.01
2022-11-08T22:14:25.625Z,16.00
2022-11-08T22:16:55.732Z,16.01
2022-11-08T22:19:25.702Z,16.03
2022-11-08T22:21:55.791Z,16.04
2022-11-08T22:24:25.927Z,16.08
2022-11-08T22:26:56.239Z,16.09
2022-11-08T22:29:29.015Z,16.11
2022-11-08T22:31:59.133Z,16.12
2022-11-08T22:34:29.158Z,16.15
2022-11-08T22:36:59.302Z,16.15
2022-11-08T22:39:29.389Z,16.08
2022-11-08T22:41:59.392Z,16.11
2022-11-08T22:44:32.091Z,16.12
2022-11-08T22:47:02.192Z,16.15
2022-11-08T22:49:32.305Z,16.17
2022-11-08T22:52:02.331Z,16.17
2022-11-08T22:54:32.389Z,16.15
2022-11-08T22:57:04.262Z,16.19
2022-11-08T22:59:37.016Z,16.23
2022-11-08T23:02:07.191Z,16.23
2022-11-08T23:04:37.364Z,16.22
2022-11-08T23:07:07.484Z,16.21
2022-11-08T23:09:37.555Z,16.26
2022-11-08T23:12:20.246Z,16.23
2022-11-08T23:15:20.181Z,16.22
2022-11-08T23:17:50.289Z,16.17
2022-11-08T23:20:33.050Z,16.15
2022-11-08T23:23:15.734Z,16.20
2022-11-08T23:25:46.115Z,16.19
2022-11-08T23:28:28.640Z,16.21
2022-11-08T23:31:32.277Z,16.18
2022-11-08T23:34:02.484Z,16.09
2022-11-08T23:36:32.693Z,16.05
2022-11-08T23:39:02.766Z,15.97
2022-11-08T23:41:45.289Z,15.98
2022-11-08T23:44:27.877Z,15.94
2022-11-08T23:47:02.742Z,15.92
2022-11-08T23:49:32.895Z,15.84
2022-11-08T23:52:02.931Z,15.73
2022-11-08T23:54:32.952Z,15.65
2022-11-08T23:57:02.997Z,15.59
2022-11-08T23:59:33.324Z,15.50
